NORTHAMPTON WEATHER

The latest weather and forecasts for Hardingstone

run by 1st Hardingstone Viking Scout Troop.


Thunder radar more information blitzortung!


Rain radar more information rain snow radar


Nearby METAR Reports

   
EGTC - Cranfield, United Kingdom
Distance from station: SE 24 km
Updated: May 20 2022 6:20 pm
NOT Current
Mostly Cloudy  
Mostly Cloudy  
   Wind: SW 19 kts
Wind: SW 19 kts
Temperature: 15°C
Dew Point: 10°C
Humidity: 72%
Barometer: 1016 mb
Clouds: Mostly Cloudy
Visibility: More than 10 km
Cloud details: Few Clouds 3200 ft,
Mostly Cloudy 3900 ft
EGTC 201720Z 22019KT 9999 FEW032 BKN039 15/10 Q1016
EGTK - Oxford, United Kingdom
Distance from station: SW 51 km
Updated: May 20 2022 10:20 pm
NOT Current
Clear  
Clear  
   Wind: WSW 12 kts
Wind: WSW 12 kts
Temperature: 12°C
Dew Point: 9°C
Humidity: 82%
Barometer: 1018 mb
Visibility: More than 10 km
Cloud details: Clear
EGTK 202120Z 25012KT CAVOK 12/09 Q1018
EGGW - Luton Airport, United Kingdom
Distance from station: SE 52 km
Updated: May 21 2022 2:50 am
Clear  
Clear  
   Wind: West 13 kts
Wind: West 13 kts
Temperature: 10°C
Wind Chill: 7°C
Dew Point: 9°C
Humidity: 94%
Barometer: 1019 mb
Clouds: Clear
Visibility: More than 10 km
Cloud details: Clear
EGGW 210150Z AUTO 26013KT 9999 NCD 10/09 Q1019
EGXT - Wittering Raf, United Kingdom
Distance from station: NNE 53 km
Updated: May 21 2022 1:50 am
Clear  
Clear  
   Wind: WSW 12 kts
Wind: WSW 12 kts
Temperature: 10°C
Wind Chill: 7°C
Dew Point: 8°C
Humidity: 88%
Barometer: 1017 mb
Clouds: Clear
Visibility: More than 10 km
Cloud details: Clear
EGXT 210050Z AUTO 24012KT 9999 NCD 10/08 Q1017
EGBB - Birmingham Airpo, United Kingdom
Distance from station: WNW 65 km
Updated: May 21 2022 2:50 am
Clear  
Clear  
   Wind: SW 5 kts
Wind: SW 5 kts
Temperature: 10°C
Wind Chill: 9°C
Dew Point: 9°C
Humidity: 94%
Barometer: 1019 mb
Visibility: More than 10 km
Cloud details: Clear
EGBB 210150Z 23005KT CAVOK 10/09 Q1019
EGUB - Benson Raf, United Kingdom
Distance from station: S 67 km
Updated: May 21 2022 1:50 am
Clear  
Clear  
   Wind: SW 5 kts
Wind: SW 5 kts
Temperature: 10°C
Wind Chill: 9°C
Dew Point: 8°C
Humidity: 88%
Barometer: 1020 mb
Clouds: Clear
Visibility: More than 10 km
Cloud details: Clear
EGUB 210050Z AUTO 22005KT 9999 NCD 10/08 Q1020
EGVN - Brize Norton Raf, United Kingdom
Distance from station: SW 69 km
Updated: May 21 2022 2:20 am
Mostly Cloudy  
Mostly Cloudy  
   Wind: SW 3 kts
Wind: SW 3 kts
Temperature: 10°C
Wind Chill: 9°C
Dew Point: 9°C
Humidity: 94%
Barometer: 1020 mb
Clouds: Mostly Cloudy
Visibility: More than 10 km
Cloud details: Few Clouds 1400 ft,
Mostly Cloudy 25000 ft
EGVN 210120Z 22003KT 9999 FEW014 BKN250 10/09 Q1020 NOSIG
EGSC - Cambridge, United Kingdom
Distance from station: E 72 km
Updated: May 20 2022 4:50 pm
NOT Current
Partly Cloudy  
Partly Cloudy  
   Wind: SW 12 kts
Wind: SW 12 kts
Temperature: 17°C
Dew Point: 8°C
Humidity: 56%
Barometer: 1016 mb
Clouds: Partly Cloudy
Visibility: More than 10 km
Cloud details: Partly Cloudy 3500 ft
EGSC 201550Z 23012KT 190V260 9999 SCT035 17/08 Q1016
EGNX - East Midlands, United Kingdom
Distance from station: NNW 73 km
Updated: May 21 2022 2:50 am
Clear  
Clear  
   Wind: WSW 11 kts
Wind: WSW 11 kts
Temperature: 10°C
Wind Chill: 7°C
Dew Point: 8°C
Humidity: 88%
Barometer: 1018 mb
Visibility: More than 10 km
Cloud details: Clear
EGNX 210150Z 24011KT CAVOK 10/08 Q1018
EGWU - Northolt Raf, United Kingdom
Distance from station: SSE 80 km
Updated: May 21 2022 1:50 am
Clear  
Clear  
   Wind: West 5 kts
Wind: West 5 kts
Temperature: 11°C
Dew Point: 8°C
Humidity: 82%
Barometer: 1020 mb
Clouds: Clear
Visibility: More than 10 km
Cloud details: Clear
EGWU 210050Z AUTO 26005KT 9999 NCD 11/08 Q1020
  

Script developed by  Saratoga-weather.org Adapted for the template by  Weerstation Leuven

You find our weather info also at:

UK Metoffice

WeatherCloud

Weather Underground

United Kingdom Weather Network

AWEKAS

Citizen Weather Observer Program (CWOP)

HAMweather, WeatherForYou, PWS Weather

Equipment we use:

Weather-station
Davis VP2

Weather-program
Weather Display

Provider

Davis VP2

Weather Display